• Join FlightAware (Why Join?)
  • Login
  • US Flag 
05:21PM EDT


 

Airport Tracker/Info


-or-


 

Live Flight TrackerFlight Track Log ✈ VH-CZH ✈ 25-Aug-2013 ✈ YPJT / JAD - YPJT / JAD

Flight Track Log - Related Links

Times and Time Zones

All times are in EDT time to prevent confusion due to time zone crossing. See the VH-CZH flight status page for this flight to view local times or setup timezone preferences in your user account.

Time Position Orientation Groundspeed Altitude Reporting Facility
EDT Latitude Longitude Course Direction KTS MPH feet Rate Location/Type
10:44PM -32.0861 115.8934 313° West 79 91 900  Level Aus ATC (RADAR)
10:44PM -32.0766 115.8815 313° West 93 107 1,500 840 Climbing Aus ATC (RADAR)
10:45PM -32.0866 115.8591 242° Southwest 114 131 2,000 480 Climbing Aus ATC (RADAR)
10:46PM -32.0844 115.8230 274° West 108 124 2,400 240 Climbing Aus ATC (RADAR)
10:47PM -32.0762 115.7911 287° West 102 117 2,500  Climbing Aus ATC (RADAR)
10:48PM -32.0771 115.7535 268° West 116 133 2,500  Level Aus ATC (RADAR)
10:49PM -32.0796 115.7238 264° West 115 132 2,500  Level Aus ATC (RADAR)
10:49PM -32.0817 115.6976 265° West 117 135 2,500 -120 Level Aus ATC (RADAR)
10:50PM -32.0978 115.6709 234° Southwest 131 151 2,400  Descending Aus ATC (RADAR)
10:51PM -32.1264 115.6869 155° Southeast 129 148 2,500  Climbing Aus ATC (RADAR)
10:52PM -32.1001 115.6960 16° North 98 113 2,500 -60 Level Aus ATC (RADAR)
10:53PM -32.0746 115.6944 357° North 91 105 2,400  Descending Aus ATC (RADAR)
10:54PM -32.0555 115.6951 North 89 102 2,500 60 Climbing Aus ATC (RADAR)
10:55PM -32.0402 115.6952 360° North 95 109 2,500  Level Aus ATC (RADAR)
10:55PM -32.0315 115.7152 63° Northeast 106 122 2,500  Level Aus ATC (RADAR)
10:56PM -32.0434 115.7326 129° Southeast 127 146 2,500  Level Aus ATC (RADAR)
10:57PM -32.0644 115.7721 122° Southeast 125 144 2,500 -60 Level Aus ATC (RADAR)
10:58PM -32.0716 115.8023 106° East 125 144 2,400 60 Descending Aus ATC (RADAR)
10:58PM -32.0735 115.8259 96° East 119 137 2,600 120 Climbing Aus ATC (RADAR)
10:59PM -32.0751 115.8604 93° East 122 140 2,600 -120 Level Aus ATC (RADAR)
11:00PM -32.0841 115.8852 113° Southeast 138 159 2,500 -120 Descending Aus ATC (RADAR)
11:00PM -32.0927 115.9170 108° East 130 150 2,500 -180 Level Aus ATC (RADAR)
11:02PM -32.0614 115.9295 19° North 86 99 2,200 -360 Descending Aus ATC (RADAR)
11:03PM -32.0408 115.9374 18° North 95 109 1,700 -600 Descending Aus ATC (RADAR)
11:03PM -32.0260 115.9424 16° North 96 110 1,400 -540 Descending Aus ATC (RADAR)
11:04PM -32.0064 115.9460 North 96 110 1,000 -540 Descending Aus ATC (RADAR)
11:05PM -31.9915 115.9482 North 93 107 700 -480 Descending Aus ATC (RADAR)
11:05PM -31.9768 115.9518 12° North 92 106 500 480 Descending Aus ATC (RADAR)
11:06PM -31.9717 115.9372 292° West 100 115 1,300 840 Climbing Aus ATC (RADAR)
11:06PM -31.9770 115.9160 254° West 115 132 1,500 60 Climbing Aus ATC (RADAR)
11:08PM -32.0024 115.8743 234° Southwest 136 157 1,500  Level Aus ATC (RADAR)
11:09PM -32.0370 115.8602 199° South 153 176 1,500 -60 Level Aus ATC (RADAR)
11:09PM -32.0675 115.8602 180° South 147 169 1,400 -420 Descending Aus ATC (RADAR)
11:10PM -32.0891 115.8486 205° Southwest 146 168 1,000 -600 Descending Aus ATC (RADAR)
11:10PM -32.1067 115.8520 171° South 138 159 800 -660 Descending Aus ATC (RADAR)
11:11PM -32.1048 115.8679 82° East 98 113 300 -900 Descending Aus ATC (RADAR)